Time;durP1;ratioP1;P1;durP2;ratioP2;P2;SDS_P1;SDS_P2;PMS_P1;PMS_P2;Temp;Humidity;BMP_temperature;BMP_pressure;BME280_temperature;BME280_humidity;BME280_pressure;Samples;Min_cycle;Max_cycle;Signal;HPM_P1;HPM_P2
2022/08/26 00:01:26;;;;;;;;;33.50;30.50;;;;;30.51;47.44;98965.53;5119602;27;8975;-81
2022/08/26 00:03:57;;;;;;;;;29.50;28.75;;;;;30.44;47.52;98959.91;5129016;27;8875;-80
2022/08/26 00:06:26;;;;;;;;;36.75;31.75;;;;;30.44;47.66;98967.97;5099981;27;8873;-80
2022/08/26 00:08:55;;;;;;;;;32.50;31.50;;;;;30.41;47.29;98962.03;5150074;27;8847;-77
2022/08/26 00:11:24;;;;;;;;;28.50;27.50;;;;;30.40;47.76;98960.34;5080288;27;9558;-79
2022/08/26 00:13:54;;;;;;;;;29.00;26.75;;;;;30.40;47.18;98958.50;5145979;27;10159;-78
2022/08/26 00:16:26;;;;;;;;;32.25;30.25;;;;;30.38;47.44;98956.91;5139604;27;8878;-79
2022/08/26 00:18:56;;;;;;;;;34.25;32.25;;;;;30.37;47.37;98949.84;5150054;27;8895;-77
2022/08/26 00:21:25;;;;;;;;;31.25;30.25;;;;;30.22;47.84;98946.69;5132095;27;8840;-78
2022/08/26 00:23:54;;;;;;;;;36.00;33.50;;;;;30.29;47.41;98948.69;5109516;27;8849;-78
2022/08/26 00:26:23;;;;;;;;;33.25;30.00;;;;;30.21;47.60;98945.84;5111004;27;8853;-79
2022/08/26 00:28:56;;;;;;;;;35.75;32.25;;;;;30.22;48.05;98944.00;5094089;27;8989;-79
2022/08/26 00:31:26;;;;;;;;;37.50;32.75;;;;;30.13;47.72;98943.88;5088496;28;9708;-77
2022/08/26 00:33:58;;;;;;;;;31.50;31.00;;;;;30.24;47.61;98940.19;5089874;28;8955;-79
2022/08/26 00:36:27;;;;;;;;;37.00;33.25;;;;;30.17;48.07;98935.50;5089794;28;9646;-80
2022/08/26 00:38:57;;;;;;;;;31.00;29.25;;;;;30.18;47.83;98948.81;5095169;28;8985;-78
2022/08/26 00:41:25;;;;;;;;;35.75;31.00;;;;;30.17;48.14;98947.13;5093025;28;8832;-80
2022/08/26 00:43:55;;;;;;;;;35.50;32.75;;;;;30.18;47.58;98940.75;5092780;28;8867;-79
2022/08/26 00:46:31;;;;;;;;;34.00;31.00;;;;;30.26;47.72;98942.72;5109479;28;8914;-78
2022/08/26 00:49:05;;;;;;;;;43.00;33.25;;;;;30.19;47.92;98939.78;5052341;28;8913;-80
2022/08/26 00:51:47;;;;;;;;;36.80;31.80;;;;;30.28;47.83;98941.63;5068935;28;8972;-80
2022/08/26 00:54:19;;;;;;;;;37.00;32.25;;;;;30.22;47.72;98933.25;5070435;28;8866;-79
2022/08/26 00:56:54;;;;;;;;;35.00;32.75;;;;;30.24;47.59;98942.03;5089390;28;8888;-79
2022/08/26 00:59:25;;;;;;;;;33.25;31.00;;;;;30.16;47.69;98940.03;5073640;28;8869;-80
2022/08/26 01:01:56;;;;;;;;;32.50;31.00;;;;;30.26;47.45;98946.25;5089578;28;9573;-78
2022/08/26 01:04:26;;;;;;;;;35.25;32.25;;;;;30.15;48.08;98946.41;5090431;28;8835;-79
2022/08/26 01:06:55;;;;;;;;;37.50;34.50;;;;;30.14;47.76;98939.34;5091960;28;8863;-79
2022/08/26 01:09:24;;;;;;;;;34.50;32.50;;;;;30.15;47.60;98945.56;5090264;28;8890;-78
2022/08/26 01:11:56;;;;;;;;;34.25;32.00;;;;;30.16;47.66;98944.59;5095823;28;8840;-81
2022/08/26 01:14:28;;;;;;;;;36.50;33.00;;;;;30.18;47.71;98939.91;5092982;28;8997;-80
2022/08/26 01:17:00;;;;;;;;;36.75;32.25;;;;;30.19;47.52;98945.16;5111640;28;8857;-78
2022/08/26 01:19:38;;;;;;;;;41.00;35.25;;;;;30.22;48.08;98939.47;5110262;28;8845;-79
2022/08/26 01:22:12;;;;;;;;;36.75;33.50;;;;;30.13;48.20;98932.25;5111354;28;8837;-77
2022/08/26 01:24:43;;;;;;;;;37.50;33.75;;;;;30.14;47.66;98933.97;5111381;28;8853;-81
2022/08/26 01:27:16;;;;;;;;;38.75;33.00;;;;;30.12;47.89;98938.63;5110537;28;8946;-79
2022/08/26 01:29:47;;;;;;;;;38.75;34.25;;;;;30.11;48.00;98940.47;5111584;28;8895;-81
2022/08/26 01:32:21;;;;;;;;;42.75;36.50;;;;;30.16;47.51;98944.59;5110894;28;9621;-80
2022/08/26 01:34:51;;;;;;;;;40.25;36.00;;;;;30.03;48.33;98939.47;5111385;28;8949;-78
2022/08/26 01:37:23;;;;;;;;;36.00;32.25;;;;;29.92;48.59;98935.94;5111166;28;8891;-78
2022/08/26 01:39:55;;;;;;;;;38.75;34.25;;;;;30.01;47.82;98936.91;5118329;27;8836;-80
2022/08/26 01:42:26;;;;;;;;;36.50;33.00;;;;;29.92;48.00;98929.69;5112564;27;8849;-80
2022/08/26 01:45:00;;;;;;;;;39.50;34.00;;;;;29.99;48.38;98930.84;5131063;27;8887;-79
2022/08/26 01:47:33;;;;;;;;;37.75;33.25;;;;;29.97;48.39;98935.50;5131701;27;8821;-77
2022/08/26 01:50:05;;;;;;;;;39.50;34.00;;;;;29.95;47.98;98932.09;5131560;27;8933;-79
2022/08/26 01:52:39;;;;;;;;;39.75;36.25;;;;;29.99;48.31;98920.06;5112887;27;9028;-79
2022/08/26 01:55:14;;;;;;;;;41.25;35.75;;;;;29.96;48.33;98925.72;5112914;27;8931;-77
2022/08/26 01:58:04;;;;;;;;;42.00;37.00;;;;;30.01;47.81;98920.78;5131084;27;9637;-79
2022/08/26 02:00:34;;;;;;;;;43.00;36.25;;;;;29.99;48.20;98930.00;5134941;27;8851;-78
2022/08/26 02:03:20;;;;;;;;;45.75;37.50;;;;;29.98;48.20;98928.28;5156969;27;8863;-79
2022/08/26 02:05:55;;;;;;;;;40.25;34.00;;;;;30.05;47.84;98927.56;5152131;27;8863;-79
2022/08/26 02:08:30;;;;;;;;;39.75;33.50;;;;;30.01;48.31;98930.69;5151796;27;8898;-79
2022/08/26 02:11:01;;;;;;;;;41.25;36.75;;;;;29.94;47.84;98933.09;5133721;27;8843;-78
2022/08/26 02:13:33;;;;;;;;;42.50;36.00;;;;;29.92;48.09;98935.94;5132129;27;8873;-79
2022/08/26 02:16:02;;;;;;;;;40.25;35.00;;;;;29.97;48.26;98932.81;5100600;27;8841;-79
2022/08/26 02:18:37;;;;;;;;;45.50;37.75;;;;;30.05;48.21;98926.72;5131522;27;8834;-77
2022/08/26 02:21:07;;;;;;;;;44.25;37.50;;;;;29.96;48.00;98927.56;5095755;27;8861;-79
2022/08/26 02:23:36;;;;;;;;;38.25;34.50;;;;;30.00;47.73;98934.38;5113767;27;8841;-78
2022/08/26 02:26:10;;;;;;;;;33.00;31.75;;;;;29.99;47.82;98932.69;5113537;27;8853;-79
2022/08/26 02:28:48;;;;;;;;;41.00;35.75;;;;;29.98;47.90;98923.78;5138397;27;8819;-80
2022/08/26 02:31:17;;;;;;;;;43.75;37.00;;;;;29.90;48.06;98928.97;5141042;27;8870;-78
2022/08/26 02:33:46;;;;;;;;;44.00;38.00;;;;;29.80;48.44;98931.66;5121255;27;8825;-76
2022/08/26 02:36:19;;;;;;;;;42.50;37.50;;;;;29.90;48.18;98923.59;5138020;27;9061;-76
2022/08/26 02:38:48;;;;;;;;;40.50;36.00;;;;;29.72;48.65;98926.09;5134346;27;8871;-78
2022/08/26 02:41:20;;;;;;;;;46.00;39.25;;;;;29.74;48.52;98916.94;5093180;28;8966;-78
2022/08/26 02:43:50;;;;;;;;;40.00;36.00;;;;;29.75;48.56;98917.78;5109382;28;8841;-80
2022/08/26 02:46:19;;;;;;;;;41.00;36.00;;;;;29.71;48.83;98916.31;5059179;28;9701;-79
2022/08/26 02:48:56;;;;;;;;;45.75;37.75;;;;;29.73;48.18;98920.59;5092204;28;8837;-77
2022/08/26 02:51:25;;;;;;;;;42.00;36.50;;;;;29.72;48.29;98918.03;5109683;28;8833;-79
2022/08/26 02:53:54;;;;;;;;;39.50;35.00;;;;;29.74;48.54;98919.63;5110008;28;8924;-78
2022/08/26 02:56:24;;;;;;;;;45.75;38.50;;;;;29.72;48.61;98918.03;5110191;28;8853;-79
2022/08/26 02:58:54;;;;;;;;;43.00;37.50;;;;;29.71;48.42;98916.31;5108782;28;9435;-81
2022/08/26 03:01:26;;;;;;;;;39.00;35.00;;;;;29.71;48.25;98921.69;5046406;28;8856;-79
2022/08/26 03:03:56;;;;;;;;;44.75;38.50;;;;;29.73;48.08;98922.44;5089668;28;8860;-80
2022/08/26 03:06:25;;;;;;;;;45.00;38.25;;;;;29.74;48.31;98921.47;5090308;28;8963;-78
2022/08/26 03:08:54;;;;;;;;;47.50;40.50;;;;;29.76;48.47;98921.34;5112208;28;8872;-79
2022/08/26 03:11:24;;;;;;;;;46.00;39.25;;;;;29.73;48.22;98922.44;5111684;28;8913;-78
2022/08/26 03:14:00;;;;;;;;;41.75;36.75;;;;;29.72;48.43;98924.25;5073296;28;8875;-77
2022/08/26 03:16:32;;;;;;;;;44.50;38.25;;;;;29.68;48.17;98921.97;5073461;28;8922;-77
2022/08/26 03:19:02;;;;;;;;;44.25;37.25;;;;;29.70;48.33;98920.84;5106875;28;8967;-77
2022/08/26 03:21:32;;;;;;;;;54.25;43.50;;;;;29.70;48.48;98923.53;5090893;28;9641;-79
2022/08/26 03:24:00;;;;;;;;;96.00;93.00;;;;;29.77;48.25;98923.84;5076987;28;8848;-78
2022/08/26 03:26:31;;;;;;;;;58.75;47.50;;;;;29.73;48.06;98925.97;5090405;28;11541;-77
2022/08/26 03:31:45;;;;;;;;;49.25;38.50;;;;;29.68;48.17;98921.97;5088028;28;8863;-80
2022/08/26 03:34:15;;;;;;;;;44.75;37.50;;;;;29.64;48.56;98932.16;5087898;28;9030;-79
2022/08/26 03:36:43;;;;;;;;;46.25;39.25;;;;;29.63;48.26;98937.69;5087814;28;9681;-80
2022/08/26 03:39:14;;;;;;;;;44.50;37.50;;;;;29.55;48.65;98935.69;5092523;28;8849;-78
2022/08/26 03:41:44;;;;;;;;;44.75;37.50;;;;;29.59;48.62;98944.31;5148079;27;8819;-79
2022/08/26 03:44:13;;;;;;;;;42.75;37.75;;;;;29.49;48.86;98938.88;5150611;27;8862;-79
2022/08/26 03:46:42;;;;;;;;;45.00;38.25;;;;;29.54;48.44;98942.88;5131916;27;9664;-78
2022/08/26 03:49:11;;;;;;;;;46.00;38.50;;;;;29.55;48.84;98938.38;5131917;27;8843;-79
2022/08/26 03:51:42;;;;;;;;;46.75;40.00;;;;;29.57;48.32;98938.22;5150165;27;8831;-79
2022/08/26 03:54:12;;;;;;;;;42.25;36.25;;;;;29.45;48.71;98937.47;5150493;27;8873;-80
2022/08/26 03:56:40;;;;;;;;;48.25;39.75;;;;;29.43;48.76;98934.91;5134827;27;8889;-78
2022/08/26 03:59:10;;;;;;;;;43.75;38.75;;;;;29.43;48.95;98934.91;5096021;27;8987;-79
2022/08/26 04:01:39;;;;;;;;;47.00;40.50;;;;;29.38;48.78;98929.13;5125145;27;8981;-78
2022/08/26 04:04:08;;;;;;;;;48.00;40.25;;;;;29.46;48.57;98929.28;5131072;27;8876;-78
2022/08/26 04:06:42;;;;;;;;;53.25;42.00;;;;;29.49;48.73;98930.81;5155588;27;8911;-79
2022/08/26 04:09:14;;;;;;;;;46.75;39.00;;;;;29.47;48.84;98930.13;5170656;27;8831;-80
2022/08/26 04:11:44;;;;;;;;;48.75;41.25;;;;;29.41;48.92;98928.81;5168941;27;8824;-80
2022/08/26 04:14:21;;;;;;;;;48.25;40.25;;;;;29.46;49.13;98936.50;5132797;27;8852;-81
2022/08/26 04:16:50;;;;;;;;;46.75;37.25;;;;;29.42;48.78;98938.59;5149135;27;8853;-81
2022/08/26 04:19:20;;;;;;;;;45.00;38.50;;;;;29.48;48.70;98939.88;5149402;27;8977;-77
2022/08/26 04:21:51;;;;;;;;;62.75;50.75;;;;;29.52;48.57;98942.16;5149219;27;8819;-80
2022/08/26 04:24:22;;;;;;;;;50.25;42.75;;;;;29.51;48.82;98945.84;5063600;27;8839;-79
2022/08/26 04:26:51;;;;;;;;;49.25;40.75;;;;;29.53;48.78;98946.56;5149688;27;8968;-78
2022/08/26 04:29:24;;;;;;;;;41.50;36.25;;;;;29.60;48.86;98938.78;5139108;27;8857;-80
2022/08/26 04:31:54;;;;;;;;;51.75;42.50;;;;;29.53;48.39;98938.50;5110626;27;9636;-79
2022/08/26 04:34:24;;;;;;;;;58.50;48.75;;;;;29.60;48.99;98943.31;5129664;27;8850;-79
2022/08/26 04:36:56;;;;;;;;;47.50;40.25;;;;;29.49;48.87;98945.13;5111483;27;8830;-80
2022/08/26 04:39:26;;;;;;;;;46.75;38.50;;;;;29.57;48.51;98941.75;5085591;27;9661;-79
2022/08/26 04:41:55;;;;;;;;;43.75;38.25;;;;;29.68;48.35;98955.09;5111024;27;8896;-81
2022/08/26 04:44:29;;;;;;;;;48.00;40.75;;;;;29.72;48.33;98955.66;5129429;27;8933;-80
2022/08/26 04:46:58;;;;;;;;;47.25;40.50;;;;;29.51;49.04;98942.31;5122597;27;8859;-78
2022/08/26 04:49:27;;;;;;;;;48.50;41.00;;;;;29.67;48.80;98944.47;5113897;27;8877;-78
2022/08/26 04:52:03;;;;;;;;;49.25;39.50;;;;;29.69;48.53;98942.50;5149481;27;8874;-79
2022/08/26 04:54:32;;;;;;;;;50.25;43.00;;;;;29.80;48.35;98938.88;5149640;27;8939;-80
2022/08/26 04:57:01;;;;;;;;;48.25;40.50;;;;;29.85;48.25;98940.16;5131163;27;8844;-81
2022/08/26 04:59:31;;;;;;;;;47.75;40.50;;;;;29.93;47.93;98945.69;5113669;27;8877;-79
2022/08/26 05:02:06;;;;;;;;;47.00;40.75;;;;;30.06;48.13;98941.91;5105245;28;8828;-80
2022/08/26 05:04:36;;;;;;;;;48.50;41.50;;;;;30.06;47.57;98936.50;5104317;28;8836;-78
2022/08/26 05:07:06;;;;;;;;;47.00;40.00;;;;;30.08;47.81;98930.00;5106579;28;8866;-78
2022/08/26 05:09:39;;;;;;;;;45.00;36.00;;;;;30.20;47.59;98936.06;5105419;28;8882;-80
2022/08/26 05:12:08;;;;;;;;;50.75;43.00;;;;;30.13;47.28;98926.88;5071920;28;8948;-81
2022/08/26 05:14:38;;;;;;;;;43.25;37.25;;;;;30.23;47.23;98925.03;5122485;28;8905;-78
2022/08/26 05:17:07;;;;;;;;;46.00;39.50;;;;;30.34;46.85;98923.22;5106286;28;8828;-80
2022/08/26 05:19:36;;;;;;;;;47.00;39.50;;;;;30.44;46.69;98924.94;5109035;28;8864;-81
2022/08/26 05:22:10;;;;;;;;;51.25;42.00;;;;;30.20;47.12;98919.94;5091155;28;8851;-79
2022/08/26 05:24:42;;;;;;;;;48.75;41.00;;;;;30.53;46.34;98925.91;5108527;28;8941;-79
2022/08/26 05:27:10;;;;;;;;;47.00;39.75;;;;;30.27;47.16;98918.38;5108777;28;8855;-79
2022/08/26 05:29:41;;;;;;;;;44.50;37.75;;;;;30.48;46.54;98920.94;5108279;28;8839;-79
2022/08/26 05:32:11;;;;;;;;;49.25;40.75;;;;;30.57;46.66;98921.94;5093128;27;8823;-79
2022/08/26 05:34:41;;;;;;;;;50.75;42.50;;;;;30.49;46.88;98922.66;5152096;27;8840;-81
2022/08/26 05:37:10;;;;;;;;;44.50;38.00;;;;;30.67;46.22;98921.91;5131398;27;8869;-79
2022/08/26 05:39:41;;;;;;;;;48.25;39.75;;;;;30.79;46.25;98920.75;5145291;27;8985;-79
2022/08/26 05:42:18;;;;;;;;;47.75;39.75;;;;;30.98;45.67;98925.25;5097917;27;8871;-78
2022/08/26 05:44:53;;;;;;;;;49.00;39.50;;;;;31.24;45.58;98921.91;5116520;27;8835;-78
2022/08/26 05:47:24;;;;;;;;;48.75;40.00;;;;;30.85;45.83;98925.56;5153138;27;8855;-78
2022/08/26 05:49:54;;;;;;;;;48.00;41.50;;;;;30.94;45.82;98926.53;5105123;27;8839;-78
2022/08/26 05:52:22;;;;;;;;;47.50;39.75;;;;;30.81;45.98;98928.69;5154901;27;8860;-80
2022/08/26 05:54:53;;;;;;;;;50.00;42.25;;;;;31.00;45.87;98928.69;5132967;27;8847;-79
2022/08/26 05:57:22;;;;;;;;;48.25;40.50;;;;;31.21;45.38;98931.16;5154674;27;8843;-79
2022/08/26 05:59:51;;;;;;;;;49.75;42.00;;;;;30.98;45.47;98930.63;5136337;27;8874;-81
2022/08/26 06:02:21;;;;;;;;;52.75;44.00;;;;;31.33;45.39;98930.97;5134663;27;8839;-81
2022/08/26 06:04:50;;;;;;;;;47.25;40.50;;;;;31.34;44.90;98933.47;5152993;27;8852;-79
2022/08/26 06:08:09;;;;;;;;;47.25;39.50;;;;;31.55;44.68;98932.41;5087648;28;8846;-79
2022/08/26 06:10:12;;;;;;;;;48.75;40.25;;;;;31.86;44.10;98928.41;5087135;28;8849;-81
2022/08/26 06:12:59;;;;;;;;;40.50;36.00;;;;;31.60;44.07;98925.59;5053832;28;8869;-79
2022/08/26 06:15:41;;;;;;;;;39.75;35.25;;;;;31.48;44.25;98929.50;5069820;28;8874;-79
2022/08/26 06:18:14;;;;;;;;;39.75;35.75;;;;;31.78;43.90;98928.31;5086732;28;8884;-80
2022/08/26 06:20:43;;;;;;;;;40.25;35.00;;;;;30.84;45.55;98934.63;5086940;28;8837;-78
2022/08/26 06:26:14;;;;;;;;;39.50;35.25;;;;;31.63;44.21;98938.78;5086197;28;8861;-82
2022/08/26 06:28:43;;;;;;;;;39.25;35.00;;;;;31.91;43.38;98944.16;5086306;28;9663;-80
2022/08/26 06:31:14;;;;;;;;;44.50;38.75;;;;;31.91;42.87;98935.19;5070773;28;8868;-78
2022/08/26 06:33:44;;;;;;;;;42.75;36.25;;;;;31.99;42.99;98940.69;5087478;28;9793;-80
2022/08/26 06:36:18;;;;;;;;;40.50;35.50;;;;;31.55;43.83;98941.38;5087452;28;9035;-79
2022/08/26 06:38:50;;;;;;;;;40.00;35.50;;;;;31.82;43.45;98942.34;5126893;27;8835;-82
2022/08/26 06:41:19;;;;;;;;;41.00;36.50;;;;;32.10;43.10;98939.63;5134499;27;8993;-81
2022/08/26 06:43:48;;;;;;;;;41.75;36.00;;;;;32.15;42.92;98935.47;5133372;27;8824;-79
2022/08/26 06:46:19;;;;;;;;;45.75;39.50;;;;;31.88;43.45;98935.50;5152590;27;8847;-78
2022/08/26 06:48:50;;;;;;;;;42.75;35.50;;;;;32.23;42.75;98932.84;5152095;27;8857;-79
2022/08/26 06:51:21;;;;;;;;;42.50;36.25;;;;;32.52;42.51;98937.16;5117157;27;8927;-79
2022/08/26 06:53:53;;;;;;;;;44.25;37.00;;;;;32.49;42.08;98929.34;5152419;27;8850;-80
2022/08/26 06:56:25;;;;;;;;;41.50;35.25;;;;;32.75;41.70;98937.50;5151571;27;8866;-80
2022/08/26 06:58:54;;;;;;;;;41.25;35.50;;;;;32.00;42.84;98943.19;5133805;27;8931;-81
2022/08/26 07:01:25;;;;;;;;;39.75;35.75;;;;;31.38;44.52;98937.59;5129454;27;8840;-78
2022/08/26 07:03:57;;;;;;;;;40.25;35.00;;;;;32.04;43.32;98944.66;5133889;27;8919;-79
2022/08/26 07:06:28;;;;;;;;;41.50;35.75;;;;;32.27;42.79;98944.19;5132739;27;8855;-79
2022/08/26 07:09:02;;;;;;;;;39.00;34.75;;;;;32.81;42.28;98946.84;5151073;27;8835;-80
2022/08/26 07:11:33;;;;;;;;;44.75;36.25;;;;;31.86;43.21;98939.19;5153008;27;8942;-80
2022/08/26 07:14:01;;;;;;;;;34.75;32.00;;;;;31.99;43.40;98943.38;5115389;27;8847;-79
2022/08/26 07:16:30;;;;;;;;;37.50;33.75;;;;;32.50;42.48;98939.16;5132111;27;8854;-81
2022/08/26 07:19:02;;;;;;;;;46.50;39.75;;;;;31.81;43.85;98946.03;5131051;27;8943;-80
2022/08/26 07:21:40;;;;;;;;;40.00;34.50;;;;;31.76;43.86;98946.50;5132038;27;8889;-80
2022/08/26 07:24:10;;;;;;;;;40.50;36.00;;;;;31.75;43.98;98949.34;5150255;27;8835;-79
2022/08/26 07:26:39;;;;;;;;;44.00;36.75;;;;;32.12;43.16;98951.09;5130387;27;8867;-79
2022/08/26 07:29:11;;;;;;;;;40.00;35.75;;;;;31.98;43.33;98945.19;5111869;27;8850;-80
2022/08/26 07:31:40;;;;;;;;;41.75;34.25;;;;;31.93;43.83;98936.75;5111426;27;8875;-80
2022/08/26 07:34:12;;;;;;;;;44.25;36.75;;;;;32.02;43.42;98935.88;5101140;27;8859;-80
2022/08/26 07:36:41;;;;;;;;;36.50;32.75;;;;;31.95;43.32;98941.97;5131523;27;8933;-79
2022/08/26 07:39:10;;;;;;;;;38.00;33.25;;;;;32.27;42.90;98937.94;5150293;27;10085;-79
2022/08/26 07:41:38;;;;;;;;;40.50;35.50;;;;;31.82;43.76;98940.50;5150116;27;8916;-80
2022/08/26 07:44:07;;;;;;;;;42.00;37.00;;;;;30.99;46.01;98936.91;5153711;27;9648;-78
2022/08/26 07:46:37;;;;;;;;;41.75;36.25;;;;;31.08;46.08;98938.72;5131522;27;8896;-79
2022/08/26 07:49:06;;;;;;;;;41.25;36.25;;;;;31.45;45.16;98935.97;5127969;27;8903;-79
2022/08/26 07:51:37;;;;;;;;;41.50;35.75;;;;;32.14;43.83;98939.19;5129838;27;8850;-81
2022/08/26 07:54:07;;;;;;;;;39.75;35.50;;;;;32.55;43.30;98938.66;5129960;27;8857;-78
2022/08/26 07:56:35;;;;;;;;;39.75;35.50;;;;;32.57;43.10;98934.00;5111715;27;8857;-80
2022/08/26 07:59:04;;;;;;;;;41.50;35.75;;;;;31.76;44.85;98940.25;5135294;27;8863;-79
2022/08/26 08:01:42;;;;;;;;;43.75;38.00;;;;;31.74;45.35;98932.34;5130814;27;8851;-78
2022/08/26 08:04:13;;;;;;;;;45.25;39.00;;;;;31.33;46.68;98937.19;5138353;27;8926;-79
2022/08/26 08:06:44;;;;;;;;;44.75;39.00;;;;;32.19;44.55;98933.31;5143135;27;9641;-81
2022/08/26 08:09:14;;;;;;;;;44.50;37.75;;;;;31.80;45.23;98934.41;5128631;27;8841;-79
2022/08/26 08:11:44;;;;;;;;;45.25;37.50;;;;;32.53;43.94;98930.72;5132972;27;8861;-80
2022/08/26 08:14:17;;;;;;;;;42.75;35.75;;;;;32.27;44.21;98932.53;5149484;27;8839;-79
2022/08/26 08:16:50;;;;;;;;;42.25;36.25;;;;;32.36;43.98;98937.84;5130611;27;8851;-80
2022/08/26 08:19:29;;;;;;;;;43.50;36.00;;;;;32.71;43.35;98936.13;5149187;27;8840;-78
2022/08/26 08:22:08;;;;;;;;;38.50;33.75;;;;;33.10;42.45;98926.75;5114017;27;9035;-79
2022/08/26 08:24:48;;;;;;;;;44.00;37.00;;;;;33.01;42.63;98924.00;5098912;27;8999;-80
2022/08/26 08:27:20;;;;;;;;;40.25;35.25;;;;;33.56;41.77;98921.94;5128625;27;8886;-79
2022/08/26 08:29:53;;;;;;;;;35.75;32.75;;;;;33.94;41.39;98922.41;5128599;27;8853;-79
2022/08/26 08:32:23;;;;;;;;;47.75;40.25;;;;;33.90;40.59;98921.88;5111774;27;9884;-79
2022/08/26 08:34:51;;;;;;;;;34.00;32.00;;;;;34.47;39.67;98918.41;5124163;27;8914;-79
2022/08/26 08:37:22;;;;;;;;;41.50;35.00;;;;;34.60;39.79;98917.06;5109409;27;9020;-79
2022/08/26 08:39:51;;;;;;;;;35.25;31.75;;;;;34.89;38.51;98914.63;5133479;27;8966;-80
2022/08/26 08:42:37;;;;;;;;;33.25;30.75;;;;;35.21;38.31;98918.31;5145256;27;8827;-80
2022/08/26 08:45:11;;;;;;;;;36.75;33.00;;;;;34.87;38.92;98911.25;5059975;28;8859;-79
2022/08/26 08:47:44;;;;;;;;;34.75;32.50;;;;;35.15;38.72;98916.28;5053521;28;8898;-80
2022/08/26 08:50:22;;;;;;;;;37.00;32.75;;;;;34.99;38.46;98919.84;5049746;28;8885;-80
2022/08/26 08:53:02;;;;;;;;;39.25;34.75;;;;;34.97;39.36;98915.66;5037352;28;8861;-81
2022/08/26 08:55:47;;;;;;;;;37.00;33.25;;;;;34.42;39.12;98920.75;5016368;28;9016;-80
2022/08/26 08:58:22;;;;;;;;;38.25;34.75;;;;;33.68;40.95;98919.78;5063528;28;8875;-80
2022/08/26 09:00:58;;;;;;;;;35.25;31.75;;;;;34.47;40.06;98917.56;5051936;28;8875;-79
2022/08/26 09:03:44;;;;;;;;;36.75;32.00;;;;;33.81;40.55;98924.72;5051431;28;9609;-80
2022/08/26 09:06:17;;;;;;;;;39.75;34.25;;;;;34.08;40.38;98920.88;5067969;28;8831;-80
2022/08/26 09:08:49;;;;;;;;;32.75;31.00;;;;;34.60;39.57;98908.94;5061382;28;8858;-81
2022/08/26 09:11:19;;;;;;;;;39.75;35.25;;;;;34.16;39.85;98908.25;5031389;28;8842;-78
2022/08/26 09:13:51;;;;;;;;;36.25;32.75;;;;;34.34;39.64;98910.78;5052131;28;9073;-81
2022/08/26 09:16:24;;;;;;;;;37.75;33.50;;;;;34.56;39.09;98908.41;5067469;28;8844;-79
2022/08/26 09:19:03;;;;;;;;;31.50;30.00;;;;;34.42;39.87;98906.38;5067985;28;8966;-79
2022/08/26 09:21:32;;;;;;;;;37.00;32.75;;;;;34.50;39.94;98906.38;5059399;27;8834;-81
2022/08/26 09:24:03;;;;;;;;;35.00;32.25;;;;;34.49;39.62;98899.28;5132040;27;8960;-80
2022/08/26 09:26:44;;;;;;;;;40.00;34.75;;;;;33.24;42.65;98899.16;5132395;27;8864;-81
2022/08/26 09:29:23;;;;;;;;;33.75;32.00;;;;;33.73;42.05;98895.81;5131762;27;9719;-82
2022/08/26 09:31:52;;;;;;;;;33.00;31.25;;;;;34.28;40.85;98895.22;5124320;27;8877;-80
2022/08/26 09:34:24;;;;;;;;;37.00;32.75;;;;;33.82;42.00;98897.53;5133896;27;9047;-80
2022/08/26 09:36:54;;;;;;;;;38.50;33.25;;;;;33.35;42.49;98895.31;5087877;27;8839;-80
2022/08/26 09:39:42;;;;;;;;;40.00;35.25;;;;;32.88;43.47;98896.59;5136483;27;8870;-80
2022/08/26 09:42:21;;;;;;;;;35.75;31.75;;;;;32.89;44.12;98894.72;5134439;27;8851;-79
2022/08/26 09:44:56;;;;;;;;;38.25;33.00;;;;;33.94;41.89;98887.22;5152876;27;8855;-80
2022/08/26 09:47:29;;;;;;;;;34.50;31.75;;;;;33.27;43.10;98893.44;5082988;28;8935;-82
2022/08/26 09:50:04;;;;;;;;;34.50;31.25;;;;;32.45;45.19;98896.41;5108094;28;8847;-81
2022/08/26 09:52:40;;;;;;;;;38.25;33.75;;;;;32.88;44.62;98885.78;5073792;28;8863;-80
2022/08/26 09:55:20;;;;;;;;;33.25;31.75;;;;;32.73;43.36;98882.81;5074158;28;9113;-83
2022/08/26 09:57:51;;;;;;;;;29.80;28.20;;;;;33.02;42.86;98887.91;5107708;28;8847;-79
2022/08/26 10:00:26;;;;;;;;;34.25;31.75;;;;;32.95;43.93;98883.25;5073660;28;8994;-80
2022/08/26 10:02:55;;;;;;;;;37.75;33.75;;;;;32.92;44.34;98878.19;5090295;28;8991;-82
2022/08/26 10:05:42;;;;;;;;;31.75;29.75;;;;;34.00;41.92;98873.03;5114377;27;8841;-79
2022/08/26 10:08:25;;;;;;;;;33.75;30.75;;;;;34.16;41.04;98874.94;5094666;27;8857;-81
2022/08/26 10:10:57;;;;;;;;;33.00;31.00;;;;;34.50;40.35;98868.47;5078870;27;8875;-79
2022/08/26 10:13:32;;;;;;;;;28.50;28.00;;;;;34.94;40.50;98874.31;5111438;27;8856;-79
2022/08/26 10:16:10;;;;;;;;;31.75;30.50;;;;;34.94;39.83;98871.63;5111294;27;8861;-80
2022/08/26 10:18:44;;;;;;;;;26.00;26.00;;;;;33.57;40.00;98867.69;5132295;27;8847;-81
2022/08/26 10:21:18;;;;;;;;;31.25;30.25;;;;;33.44;41.37;98864.59;5150747;27;8847;-81
2022/08/26 10:23:50;;;;;;;;;28.60;27.40;;;;;34.43;40.18;98860.19;5152189;27;8889;-81
2022/08/26 10:26:27;;;;;;;;;32.50;31.50;;;;;34.20;39.62;98861.88;5146194;27;8930;-81
2022/08/26 10:29:05;;;;;;;;;26.25;26.25;;;;;34.35;39.90;98857.50;5131668;27;8857;-79
2022/08/26 10:31:39;;;;;;;;;29.50;27.75;;;;;34.29;39.44;98861.75;5130928;27;8825;-82
2022/08/26 10:34:10;;;;;;;;;22.00;22.00;;;;;34.44;36.49;98852.91;5130113;27;8858;-79
2022/08/26 10:36:52;;;;;;;;;28.00;26.80;;;;;34.32;37.43;98858.66;5140270;27;8839;-80
2022/08/26 10:39:48;;;;;;;;;23.00;21.80;;;;;35.12;37.04;98854.28;5150965;27;8898;-79
2022/08/26 10:42:32;;;;;;;;;24.00;23.75;;;;;35.09;36.33;98860.06;5132082;27;8840;-81
2022/08/26 10:45:07;;;;;;;;;29.50;26.00;;;;;34.52;37.79;98852.91;5106904;28;8898;-80
2022/08/26 10:47:48;;;;;;;;;25.00;24.60;;;;;34.27;37.64;98846.66;5107400;28;8855;-80
2022/08/26 10:50:18;;;;;;;;;26.25;26.00;;;;;33.77;38.47;98851.19;5089907;28;8832;-78
2022/08/26 10:53:00;;;;;;;;;27.50;27.50;;;;;33.62;39.09;98858.22;5079290;28;8834;-80
2022/08/26 10:55:36;;;;;;;;;27.20;27.00;;;;;34.33;37.32;98844.13;5069885;28;8961;-81
2022/08/26 10:58:24;;;;;;;;;25.80;25.60;;;;;34.62;36.78;98842.72;5087243;28;8957;-82
2022/08/26 11:04:02;;;;;;;;;26.20;25.00;;;;;34.05;37.59;98838.19;5045677;28;8880;-79
2022/08/26 11:06:31;;;;;;;;;27.75;27.00;;;;;34.86;36.71;98825.59;5039594;28;8871;-81
2022/08/26 11:09:07;;;;;;;;;25.00;24.00;;;;;35.45;35.52;98830.59;5075343;28;8851;-80
2022/08/26 11:11:45;;;;;;;;;23.60;23.60;;;;;36.00;34.32;98831.44;5075126;28;8843;-80
2022/08/26 11:14:42;;;;;;;;;26.00;25.00;;;;;36.56;33.91;98830.25;5090645;28;8847;-83
2022/08/26 11:17:55;;;;;;;;;27.20;25.80;;;;;36.81;33.59;98822.72;5045733;28;8892;-81
2022/08/26 11:20:38;;;;;;;;;27.00;26.00;;;;;35.98;34.92;98829.94;5045562;28;8842;-81
2022/08/26 11:23:38;;;;;;;;;22.00;22.00;;;;;35.66;33.25;98829.13;5028706;28;8912;-80
2022/08/26 11:26:16;;;;;;;;;29.20;27.20;;;;;34.90;35.37;98832.34;5053764;28;9686;-82
2022/08/26 11:29:05;;;;;;;;;23.80;22.00;;;;;35.82;34.94;98822.75;5085677;28;9491;-80
2022/08/26 11:31:57;;;;;;;;;25.75;23.75;;;;;35.91;34.59;98817.06;5090695;28;9494;-80
2022/08/26 11:34:53;;;;;;;;;25.20;23.40;;;;;36.53;32.93;98826.03;4965915;28;8882;-80
2022/08/26 11:37:32;;;;;;;;;23.00;22.00;;;;;37.06;33.18;98815.94;4966163;28;8939;-82
2022/08/26 11:40:03;;;;;;;;;27.75;27.75;;;;;37.61;31.99;98816.41;4965743;28;8870;-80
2022/08/26 11:42:39;;;;;;;;;28.75;28.50;;;;;37.43;31.15;98811.41;4979384;28;8860;-79
2022/08/26 11:45:19;;;;;;;;;25.20;23.20;;;;;36.57;31.99;98812.94;4952545;28;8848;-80
2022/08/26 11:47:50;;;;;;;;;24.60;24.60;;;;;37.40;30.79;98816.38;4969339;28;8891;-79
2022/08/26 11:50:24;;;;;;;;;23.60;20.80;;;;;37.71;29.76;98817.97;4986375;28;8872;-81
2022/08/26 11:52:55;;;;;;;;;21.80;21.80;;;;;37.81;29.83;98808.47;5006646;28;8947;-80
2022/08/26 11:55:24;;;;;;;;;21.00;20.00;;;;;37.63;29.45;98805.34;4980416;28;8862;-80
2022/08/26 11:57:56;;;;;;;;;20.00;20.00;;;;;37.95;30.03;98795.81;5041177;28;8864;-78
2022/08/26 12:00:28;;;;;;;;;24.75;24.75;;;;;37.41;29.25;98796.28;5026335;28;8848;-80